Time;durP1;ratioP1;P1;durP2;ratioP2;P2;SDS_P1;SDS_P2;PMS_P1;PMS_P2;Temp;Humidity;BMP_temperature;BMP_pressure;BME280_temperature;BME280_humidity;BME280_pressure;Samples;Min_cycle;Max_cycle;Signal;HPM_P1;HPM_P2
2023/07/12 00:01:00;;;;;;;11.60;7.70;;;;;;;21.90;69.02;99751.86;108787;1256;71229;-71
2023/07/12 00:03:30;;;;;;;10.70;6.80;;;;;;;21.89;69.48;99749.15;108582;1256;75025;-70
2023/07/12 00:05:57;;;;;;;11.20;7.70;;;;;;;21.89;69.42;99741.00;108781;1257;60351;-71
2023/07/12 00:08:26;;;;;;;10.20;7.90;;;;;;;21.90;69.47;99735.66;108736;1257;59741;-72
2023/07/12 00:10:55;;;;;;;10.10;7.10;;;;;;;21.91;69.70;99730.90;106981;1259;74758;-71
2023/07/12 00:13:23;;;;;;;10.60;7.50;;;;;;;21.93;69.77;99732.80;106791;1257;70031;-70
2023/07/12 00:15:52;;;;;;;11.50;7.40;;;;;;;21.95;69.75;99733.31;106956;1257;71622;-70
2023/07/12 00:18:25;;;;;;;9.60;7.10;;;;;;;21.96;69.82;99733.74;106846;1257;62539;-70
2023/07/12 00:20:55;;;;;;;10.90;7.00;;;;;;;21.97;69.85;99732.78;107071;1258;61301;-70
2023/07/12 00:23:22;;;;;;;9.60;7.40;;;;;;;21.95;70.16;99731.54;106766;1258;74415;-70
2023/07/12 00:25:49;;;;;;;10.00;7.10;;;;;;;21.92;70.36;99727.50;106764;1257;71337;-71
2023/07/12 00:28:23;;;;;;;10.40;7.30;;;;;;;21.90;70.56;99723.61;107178;1256;72918;-70
2023/07/12 00:30:51;;;;;;;12.10;6.60;;;;;;;21.89;70.52;99720.81;106921;1261;61299;-70
2023/07/12 00:33:19;;;;;;;9.40;6.70;;;;;;;21.90;70.56;99720.86;106981;1256;61196;-70
2023/07/12 00:35:47;;;;;;;8.70;6.70;;;;;;;21.92;70.72;99715.89;106909;1258;73452;-70
2023/07/12 00:38:21;;;;;;;10.30;6.60;;;;;;;21.93;70.73;99709.84;106542;1257;72407;-71
2023/07/12 00:40:58;;;;;;;11.40;7.50;;;;;;;21.96;70.97;99718.68;107113;1256;71630;-71
2023/07/12 00:43:44;;;;;;;8.40;6.90;;;;;;;21.98;71.22;99714.26;106943;1258;62099;-71
2023/07/12 00:46:18;;;;;;;8.90;6.80;;;;;;;21.99;71.35;99713.27;107365;1257;61308;-72
2023/07/12 00:48:46;;;;;;;9.30;6.30;;;;;;;22.02;71.47;99718.30;107082;1257;73565;-71
2023/07/12 00:51:31;;;;;;;10.30;6.50;;;;;;;22.03;71.69;99732.44;107007;1257;70968;-71
2023/07/12 00:53:58;;;;;;;10.30;6.80;;;;;;;22.03;71.89;99737.67;107195;1257;70572;-71
2023/07/12 00:56:26;;;;;;;8.60;6.70;;;;;;;22.04;72.01;99737.02;106540;1256;61209;-70
2023/07/12 00:59:03;;;;;;;10.10;6.70;;;;;;;22.04;72.46;99736.54;107112;1257;61381;-72
2023/07/12 01:01:35;;;;;;;9.20;6.60;;;;;;;22.05;73.12;99741.61;107000;1260;73224;-71
2023/07/12 01:04:04;;;;;;;8.00;5.90;;;;;;;22.08;73.39;99739.11;107002;1256;71572;-70
2023/07/12 01:06:31;;;;;;;9.30;6.30;;;;;;;22.12;73.54;99741.65;107647;1256;71461;-71
2023/07/12 01:09:06;;;;;;;8.30;6.50;;;;;;;22.16;73.77;99746.81;107265;1256;61369;-71
2023/07/12 01:11:33;;;;;;;8.10;6.00;;;;;;;22.22;73.70;99748.27;107600;1257;61106;-71
2023/07/12 01:14:00;;;;;;;9.90;6.20;;;;;;;22.29;73.74;99754.64;107463;1256;75882;-71
2023/07/12 01:16:27;;;;;;;8.00;6.00;;;;;;;22.36;73.80;99756.40;107027;1256;69792;-71
2023/07/12 01:18:54;;;;;;;8.00;5.90;;;;;;;22.44;73.54;99757.94;107120;1258;72790;-70
2023/07/12 01:21:24;;;;;;;7.10;5.80;;;;;;;22.50;73.38;99762.50;107065;1256;60785;-70
2023/07/12 01:23:50;;;;;;;7.10;6.00;;;;;;;22.58;73.01;99764.75;107675;1256;64887;-71
2023/07/12 01:26:32;;;;;;;7.80;5.60;;;;;;;22.64;72.71;99760.33;107319;1256;61279;-71
2023/07/12 01:29:01;;;;;;;8.80;5.60;;;;;;;22.70;72.35;99763.66;106993;1256;71683;-71
2023/07/12 01:31:29;;;;;;;7.30;5.60;;;;;;;22.75;72.05;99758.28;107312;1257;72684;-71
2023/07/12 01:33:57;;;;;;;7.10;5.60;;;;;;;22.79;71.92;99763.23;107139;1260;61231;-71
2023/07/12 01:36:27;;;;;;;9.00;5.80;;;;;;;22.82;71.45;99769.98;106642;1257;61277;-72
2023/07/12 01:38:56;;;;;;;8.40;5.90;;;;;;;22.86;70.92;99793.23;106907;1256;353919;-71
2023/07/12 01:41:24;;;;;;;6.60;5.30;;;;;;;22.94;69.87;99828.55;107614;1257;70922;-70
2023/07/12 01:43:52;;;;;;;7.10;5.00;;;;;;;23.02;70.36;99849.64;107000;1260;72664;-70
2023/07/12 01:46:21;;;;;;;8.10;5.20;;;;;;;23.02;70.74;99828.70;106996;1258;61647;-70
2023/07/12 01:48:48;;;;;;;8.70;5.40;;;;;;;23.03;70.84;99831.35;106833;1257;61286;-70
2023/07/12 01:51:17;;;;;;;7.70;5.10;;;;;;;22.98;71.49;99838.33;106812;1257;72665;-71
2023/07/12 01:53:44;;;;;;;7.40;5.10;;;;;;;22.87;72.41;99856.81;106809;1257;69836;-69
2023/07/12 01:56:12;;;;;;;8.00;5.30;;;;;;;22.61;74.06;99869.23;106777;1258;72827;-70
2023/07/12 01:58:39;;;;;;;7.00;4.90;;;;;;;22.36;75.81;99880.05;107130;1256;61481;-70
2023/07/12 02:01:06;;;;;;;8.80;4.80;;;;;;;22.08;77.39;99890.16;107313;1257;62490;-69
2023/07/12 02:03:34;;;;;;;8.10;4.70;;;;;;;21.75;79.25;99898.84;107053;1257;73444;-69
2023/07/12 02:06:01;;;;;;;7.90;4.70;;;;;;;21.51;80.65;99890.98;107120;1259;69866;-70
2023/07/12 02:08:28;;;;;;;6.90;4.50;;;;;;;21.29;82.18;99873.30;107046;1257;73218;-70
2023/07/12 02:10:55;;;;;;;9.20;5.00;;;;;;;21.10;83.15;99882.20;106932;1256;61365;-69
2023/07/12 02:13:23;;;;;;;7.00;5.00;;;;;;;20.96;84.12;99894.50;107204;1256;61222;-69
2023/07/12 02:15:50;;;;;;;7.00;4.90;;;;;;;20.82;84.74;99908.90;107382;1256;73449;-69
2023/07/12 02:18:18;;;;;;;9.80;5.30;;;;;;;20.72;84.88;99908.69;107360;1256;71288;-71
2023/07/12 02:20:45;;;;;;;7.80;5.30;;;;;;;20.63;85.34;99915.58;107021;1256;71449;-71
2023/07/12 02:23:12;;;;;;;7.30;4.50;;;;;;;20.54;85.72;99913.84;107388;1257;62172;-71
2023/07/12 02:25:39;;;;;;;7.50;4.90;;;;;;;20.44;86.27;99926.41;107053;1257;61260;-70
2023/07/12 02:28:07;;;;;;;9.90;4.70;;;;;;;20.32;86.92;99918.74;107454;1256;74362;-70
2023/07/12 02:30:34;;;;;;;8.50;4.70;;;;;;;20.25;87.14;99914.33;107178;1257;70393;-71
2023/07/12 02:33:01;;;;;;;8.80;4.90;;;;;;;20.18;87.42;99914.33;107614;1256;72365;-72
2023/07/12 02:35:29;;;;;;;9.50;4.70;;;;;;;20.14;87.22;99894.48;108487;1256;60450;-69
2023/07/12 02:37:58;;;;;;;7.50;4.10;;;;;;;20.10;87.60;99898.98;108482;1257;59718;-71
2023/07/12 02:40:25;;;;;;;7.50;3.60;;;;;;;20.03;88.08;99915.61;107860;1256;74993;-71
2023/07/12 02:42:52;;;;;;;7.60;3.80;;;;;;;19.94;88.67;99916.30;108202;1259;69699;-70
2023/07/12 02:45:20;;;;;;;7.40;3.30;;;;;;;19.87;88.97;99917.42;107379;1258;72882;-70
2023/07/12 02:47:46;;;;;;;7.00;3.50;;;;;;;19.81;89.24;99925.98;107678;1256;61296;-71
2023/07/12 02:50:13;;;;;;;6.10;3.20;;;;;;;19.78;89.41;99916.46;107568;1256;61142;-71
2023/07/12 02:52:40;;;;;;;5.40;2.90;;;;;;;19.72;89.91;99923.67;107696;1256;74127;-71
2023/07/12 02:55:07;;;;;;;8.90;3.10;;;;;;;19.67;89.95;99923.60;107417;1258;71423;-70
2023/07/12 02:57:34;;;;;;;7.90;3.10;;;;;;;19.64;89.85;99922.13;107299;1256;71161;-72
2023/07/12 03:00:01;;;;;;;8.70;3.00;;;;;;;19.61;89.81;99907.66;107651;1256;62122;-70
2023/07/12 03:02:30;;;;;;;6.40;2.70;;;;;;;19.59;90.09;99908.51;107110;1256;61369;-70
2023/07/12 03:04:57;;;;;;;6.80;2.70;;;;;;;19.51;90.82;99908.38;107521;1255;74512;-71
2023/07/12 03:07:24;;;;;;;6.30;2.70;;;;;;;19.46;91.29;99910.85;107444;1256;71027;-69
2023/07/12 03:09:56;;;;;;;7.20;2.80;;;;;;;19.41;91.41;99912.71;107606;1256;72095;-70
2023/07/12 03:12:23;;;;;;;11.10;3.30;;;;;;;19.36;92.20;99917.73;107693;1256;61182;-70
2023/07/12 03:14:51;;;;;;;6.20;2.90;;;;;;;19.32;92.29;99916.71;107404;1256;59196;-71
2023/07/12 03:17:17;;;;;;;6.20;3.20;;;;;;;19.28;92.97;99920.59;107564;1256;75129;-69
2023/07/12 03:19:44;;;;;;;5.40;2.80;;;;;;;19.24;93.09;99921.36;107138;1256;70869;-70
2023/07/12 03:22:11;;;;;;;4.40;2.30;;;;;;;19.21;93.41;99919.39;107514;1256;74349;-70
2023/07/12 03:24:41;;;;;;;7.40;2.90;;;;;;;19.17;93.75;99920.70;107917;1257;62090;-68
2023/07/12 03:27:08;;;;;;;6.10;2.70;;;;;;;19.15;93.62;99918.25;107462;1257;59309;-69
2023/07/12 03:29:35;;;;;;;6.20;2.80;;;;;;;19.14;93.83;99924.41;107071;1256;73518;-69
2023/07/12 03:32:04;;;;;;;7.70;2.70;;;;;;;19.11;94.02;99925.40;107573;1256;71328;-70
2023/07/12 03:34:31;;;;;;;6.70;2.90;;;;;;;19.11;94.20;99924.96;107605;1257;72343;-71
2023/07/12 03:36:58;;;;;;;9.90;3.50;;;;;;;19.10;94.04;99923.72;107170;1258;61150;-71
2023/07/12 03:39:28;;;;;;;7.90;3.10;;;;;;;19.12;93.35;99923.30;107387;1256;61644;-69
2023/07/12 03:41:55;;;;;;;7.70;3.50;;;;;;;19.14;93.01;99923.17;107257;1256;72635;-69
2023/07/12 03:44:22;;;;;;;8.50;3.10;;;;;;;19.16;93.01;99926.55;107415;1256;70537;-69
2023/07/12 03:46:49;;;;;;;6.60;2.60;;;;;;;19.17;92.92;99934.34;106762;1256;72719;-69
2023/07/12 03:49:16;;;;;;;6.30;2.90;;;;;;;19.17;92.68;99939.02;107256;1256;61199;-71
2023/07/12 03:51:43;;;;;;;5.00;2.50;;;;;;;19.18;92.77;99947.85;107457;1256;61748;-70
2023/07/12 03:54:12;;;;;;;5.70;2.80;;;;;;;19.18;92.69;99960.59;107726;1256;74622;-70
2023/07/12 03:56:38;;;;;;;5.30;2.70;;;;;;;19.18;92.85;99966.56;107035;1259;72281;-69
2023/07/12 03:59:08;;;;;;;4.80;2.60;;;;;;;19.17;92.84;99962.52;107405;1256;71490;-69
2023/07/12 04:01:36;;;;;;;5.50;2.80;;;;;;;19.16;92.91;99962.77;107294;1255;62006;-69
2023/07/12 04:04:03;;;;;;;5.20;2.60;;;;;;;19.16;92.93;99978.80;107616;1256;60273;-71
2023/07/12 04:06:31;;;;;;;7.30;3.20;;;;;;;19.16;93.30;99990.73;107197;1255;75144;-70
2023/07/12 04:08:58;;;;;;;6.00;3.30;;;;;;;19.16;93.62;99999.92;107727;1256;70068;-70
2023/07/12 04:11:31;;;;;;;7.30;3.20;;;;;;;19.16;94.16;100015.10;107408;1256;71546;-70
2023/07/12 04:14:02;;;;;;;6.00;3.10;;;;;;;19.15;94.93;100019.34;106912;1256;61276;-72
2023/07/12 04:16:30;;;;;;;5.80;3.20;;;;;;;19.17;95.13;100023.77;107407;1255;61219;-70
2023/07/12 04:18:57;;;;;;;4.20;3.00;;;;;;;19.20;95.50;100024.82;106898;1256;74407;-71
2023/07/12 04:21:24;;;;;;;6.20;3.50;;;;;;;19.22;95.84;100028.23;107662;1256;69746;-71
2023/07/12 04:23:52;;;;;;;5.80;3.00;;;;;;;19.24;95.77;100027.23;107160;1255;72670;-71
2023/07/12 04:26:21;;;;;;;4.60;2.90;;;;;;;19.27;95.99;100026.96;107226;1257;62206;-70
2023/07/12 04:28:51;;;;;;;5.50;2.90;;;;;;;19.32;96.06;100034.50;107770;1256;61607;-71
2023/07/12 04:31:19;;;;;;;5.20;3.00;;;;;;;19.35;96.33;100052.57;108018;1256;75379;-72
2023/07/12 04:33:46;;;;;;;5.20;2.80;;;;;;;19.36;96.74;100067.04;107212;1257;69992;-71
2023/07/12 04:36:16;;;;;;;4.60;2.40;;;;;;;19.37;96.77;100075.23;107381;1256;73038;-69
2023/07/12 04:38:44;;;;;;;3.90;2.70;;;;;;;19.36;96.99;100086.33;107579;1255;61246;-70
2023/07/12 04:41:11;;;;;;;3.80;2.30;;;;;;;19.34;97.17;100091.23;107508;1261;60509;-72
2023/07/12 04:43:38;;;;;;;7.30;2.50;;;;;;;19.34;97.34;100093.81;107646;1256;74337;-69
2023/07/12 04:46:05;;;;;;;5.10;2.60;;;;;;;19.33;97.42;100084.77;107208;1256;70494;-69
2023/07/12 04:48:33;;;;;;;9.30;2.50;;;;;;;19.34;97.29;100079.08;107406;1256;72658;-69
2023/07/12 04:51:03;;;;;;;6.80;2.00;;;;;;;19.37;97.35;100084.81;107322;1257;61147;-71
2023/07/12 04:53:30;;;;;;;6.40;2.00;;;;;;;19.40;96.91;100089.59;107555;1256;61744;-71
2023/07/12 04:55:57;;;;;;;4.90;2.00;;;;;;;19.44;96.59;100083.73;107171;1256;73616;-72
2023/07/12 04:58:23;;;;;;;3.90;1.80;;;;;;;19.46;96.54;100088.05;107595;1262;69985;-70
2023/07/12 05:00:50;;;;;;;4.40;1.80;;;;;;;19.48;96.25;100081.03;107544;1256;71475;-71
2023/07/12 05:03:17;;;;;;;3.60;1.60;;;;;;;19.50;95.77;100064.61;107755;1256;62687;-71
2023/07/12 05:05:44;;;;;;;3.30;1.70;;;;;;;19.56;95.34;100068.66;107527;1256;61160;-70
2023/07/12 05:08:11;;;;;;;4.10;2.00;;;;;;;19.62;95.03;100097.24;107669;1256;73454;-70
2023/07/12 05:10:38;;;;;;;4.30;1.80;;;;;;;19.66;94.81;100109.25;107558;1256;71257;-70
2023/07/12 05:13:05;;;;;;;4.20;1.90;;;;;;;19.68;94.58;100117.61;107253;1256;72749;-71
2023/07/12 05:15:32;;;;;;;3.30;1.50;;;;;;;19.69;94.23;100128.18;107865;1256;60799;-70
2023/07/12 05:17:59;;;;;;;4.30;1.70;;;;;;;19.71;93.92;100125.04;107474;1256;61119;-71
2023/07/12 05:20:26;;;;;;;5.10;1.50;;;;;;;19.74;93.77;100127.35;107542;1256;73293;-69
2023/07/12 05:22:53;;;;;;;2.80;1.30;;;;;;;19.77;92.47;100141.23;107541;1255;70082;-70
2023/07/12 05:25:20;;;;;;;5.40;1.80;;;;;;;19.80;91.10;100149.73;107517;1256;73273;-71
2023/07/12 05:27:47;;;;;;;3.30;1.20;;;;;;;19.82;89.99;100162.83;107143;1256;61356;-69
2023/07/12 05:30:14;;;;;;;2.90;1.00;;;;;;;19.79;87.73;100162.58;107530;1256;61266;-69
2023/07/12 05:32:41;;;;;;;7.20;1.20;;;;;;;19.79;87.03;100154.60;107721;1258;74450;-70
2023/07/12 05:35:08;;;;;;;3.50;1.00;;;;;;;19.80;87.06;100156.07;107524;1256;71396;-69
2023/07/12 05:37:35;;;;;;;4.10;1.10;;;;;;;19.83;86.56;100153.63;107441;1256;72793;-70
2023/07/12 05:40:03;;;;;;;2.80;0.80;;;;;;;19.87;86.15;100151.74;107369;1256;61650;-71
2023/07/12 05:42:31;;;;;;;2.60;0.90;;;;;;;19.95;86.16;100151.75;107599;1256;61269;-71
2023/07/12 05:44:58;;;;;;;4.30;1.20;;;;;;;20.07;85.80;100162.39;107140;1257;72493;-73
2023/07/12 05:47:25;;;;;;;3.70;1.00;;;;;;;20.18;85.14;100171.77;107493;1256;71736;-72
2023/07/12 05:49:52;;;;;;;2.30;1.10;;;;;;;20.26;83.91;100172.04;107250;1256;71972;-75
2023/07/12 05:52:19;;;;;;;2.50;1.00;;;;;;;20.26;82.63;100178.23;107359;1256;61351;-71
2023/07/12 05:54:46;;;;;;;4.00;1.00;;;;;;;20.27;82.25;100174.31;107506;1260;59334;-73
2023/07/12 05:57:12;;;;;;;6.50;1.10;;;;;;;20.31;81.63;100170.48;107667;1256;73532;-70
2023/07/12 05:59:39;;;;;;;7.10;1.40;;;;;;;20.34;80.81;100149.51;107648;1256;72976;-73
2023/07/12 06:02:11;;;;;;;4.00;1.10;;;;;;;20.42;80.79;100131.73;107903;1259;71326;-73
2023/07/12 06:04:38;;;;;;;3.10;1.00;;;;;;;20.45;79.27;100143.90;107615;1256;61241;-74
2023/07/12 06:07:05;;;;;;;5.40;1.10;;;;;;;20.48;78.86;100146.41;107717;1256;59970;-73
2023/07/12 06:09:31;;;;;;;3.70;1.20;;;;;;;20.52;78.09;100156.41;108128;1256;75093;-70
2023/07/12 06:11:58;;;;;;;6.00;1.30;;;;;;;20.57;77.66;100160.74;107636;1256;71152;-72
2023/07/12 06:14:25;;;;;;;5.60;1.20;;;;;;;20.57;76.14;100170.34;106938;1256;73350;-72
2023/07/12 06:16:52;;;;;;;3.60;1.10;;;;;;;20.55;75.55;100163.89;106972;1256;61755;-71
2023/07/12 06:19:19;;;;;;;2.90;0.90;;;;;;;20.61;75.66;100162.35;106665;1257;61365;-72
2023/07/12 06:21:45;;;;;;;3.00;0.90;;;;;;;20.68;75.10;100153.39;106902;1256;72618;-73
2023/07/12 06:24:12;;;;;;;4.40;0.90;;;;;;;20.79;74.60;100154.70;106906;1256;70598;-73
2023/07/12 06:26:39;;;;;;;2.80;0.80;;;;;;;20.95;74.50;100145.40;106710;1256;72123;-71
2023/07/12 06:29:06;;;;;;;3.30;1.10;;;;;;;21.14;74.05;100130.89;106522;1259;61136;-72
2023/07/12 06:31:32;;;;;;;1.70;0.70;;;;;;;21.28;73.50;100131.67;106719;1256;61252;-71
2023/07/12 06:34:03;;;;;;;2.30;1.10;;;;;;;21.34;72.29;100134.09;106721;1256;72951;-70
2023/07/12 06:36:33;;;;;;;2.60;0.80;;;;;;;21.38;71.95;100137.84;107162;1262;69797;-71
2023/07/12 06:39:00;;;;;;;2.60;0.90;;;;;;;21.44;71.13;100136.83;106605;1257;72205;-71
2023/07/12 06:41:27;;;;;;;2.10;0.90;;;;;;;21.46;69.67;100143.77;106952;1256;61573;-70
2023/07/12 06:43:56;;;;;;;1.70;0.80;;;;;;;21.47;68.35;100142.84;106735;1256;61250;-70
2023/07/12 06:46:25;;;;;;;1.90;0.80;;;;;;;21.47;68.57;100136.42;106591;1257;74142;-70
2023/07/12 06:48:52;;;;;;;2.70;0.90;;;;;;;21.55;68.42;100125.84;106645;1256;69706;-70
2023/07/12 06:51:20;;;;;;;2.60;0.70;;;;;;;21.64;67.95;100121.52;106839;1256;73773;-70
2023/07/12 06:53:47;;;;;;;1.60;0.80;;;;;;;21.70;67.88;100143.14;106590;1256;61675;-71
2023/07/12 06:56:15;;;;;;;2.40;0.80;;;;;;;21.76;67.83;100150.98;107112;1257;61346;-70
2023/07/12 06:58:42;;;;;;;1.50;0.60;;;;;;;21.74;66.29;100159.02;106551;1257;74021;-70
2023/07/12 07:01:09;;;;;;;3.30;0.80;;;;;;;21.71;65.74;100155.18;106922;1256;71249;-71
2023/07/12 07:03:37;;;;;;;1.20;0.60;;;;;;;21.70;64.38;100164.68;106950;1256;71273;-71
2023/07/12 07:06:04;;;;;;;2.20;0.70;;;;;;;21.69;64.14;100165.81;106857;1256;61933;-71
2023/07/12 07:08:31;;;;;;;2.10;0.60;;;;;;;21.77;63.63;100149.54;106778;1256;61243;-71
2023/07/12 07:11:00;;;;;;;1.90;0.50;;;;;;;21.88;62.04;100151.64;106837;1255;74385;-70
2023/07/12 07:13:27;;;;;;;4.20;0.70;;;;;;;21.98;60.86;100148.83;107274;1256;71618;-70
2023/07/12 07:15:54;;;;;;;1.10;0.50;;;;;;;22.12;59.90;100149.42;108277;1254;71573;-69
2023/07/12 07:18:22;;;;;;;1.70;0.70;;;;;;;22.21;58.43;100155.18;106618;1256;61345;-69
2023/07/12 07:20:51;;;;;;;1.10;0.40;;;;;;;22.22;58.20;100164.96;106769;1257;61227;-71
2023/07/12 07:23:17;;;;;;;1.20;0.50;;;;;;;22.19;58.09;100171.27;107093;1256;74773;-70
2023/07/12 07:25:45;;;;;;;2.20;1.40;;;;;;;22.17;58.99;100171.65;106488;1260;70625;-69
2023/07/12 07:28:12;;;;;;;1.60;0.90;;;;;;;22.12;59.04;100170.80;106736;1256;72722;-68
2023/07/12 07:30:38;;;;;;;1.30;0.40;;;;;;;22.13;57.27;100170.39;106866;1256;61839;-69
2023/07/12 07:33:06;;;;;;;1.90;1.30;;;;;;;22.07;57.48;100179.59;106857;1256;60816;-70
2023/07/12 07:35:33;;;;;;;2.20;0.80;;;;;;;22.07;57.69;100179.42;106316;1256;73201;-69
2023/07/12 07:38:00;;;;;;;1.80;0.60;;;;;;;22.10;57.99;100174.86;107018;1257;70137;-70
2023/07/12 07:40:27;;;;;;;1.10;0.40;;;;;;;22.09;58.14;100181.50;106660;1256;71542;-69
2023/07/12 07:42:55;;;;;;;1.50;0.50;;;;;;;22.13;58.68;100183.95;106648;1255;61268;-70
2023/07/12 07:45:21;;;;;;;1.50;0.50;;;;;;;22.18;58.27;100188.71;107336;1256;59677;-71
2023/07/12 07:47:49;;;;;;;1.80;0.60;;;;;;;22.19;58.35;100193.73;108579;1256;74781;-71
2023/07/12 07:50:16;;;;;;;1.60;0.50;;;;;;;22.20;58.79;100186.95;107712;1256;70035;-71
2023/07/12 07:52:43;;;;;;;1.90;0.50;;;;;;;22.25;58.17;100196.13;107893;1256;71471;-72
2023/07/12 07:55:10;;;;;;;1.10;0.50;;;;;;;22.29;58.55;100196.24;107165;1256;62072;-69
2023/07/12 07:57:37;;;;;;;1.40;0.50;;;;;;;22.43;58.50;100196.39;107162;1256;61375;-72
2023/07/12 08:00:05;;;;;;;1.30;0.50;;;;;;;22.47;57.45;100207.77;107092;1256;73461;-69
2023/07/12 08:02:31;;;;;;;2.50;0.60;;;;;;;22.44;57.30;100217.59;107351;1257;70013;-70
2023/07/12 08:04:58;;;;;;;4.30;1.00;;;;;;;22.43;57.34;100207.64;107273;1256;72181;-71
2023/07/12 08:07:25;;;;;;;2.20;0.50;;;;;;;22.51;56.90;100208.26;107932;1256;61218;-69
2023/07/12 08:09:52;;;;;;;3.90;0.70;;;;;;;22.48;56.82;100232.84;107056;1259;61169;-70
2023/07/12 08:12:18;;;;;;;1.70;0.60;;;;;;;22.42;57.47;100239.36;107284;1256;73916;-71
2023/07/12 08:14:45;;;;;;;1.60;0.50;;;;;;;22.35;58.14;100227.98;108577;1256;71182;-71
2023/07/12 08:17:15;;;;;;;3.20;0.60;;;;;;;22.42;58.82;100219.25;106944;1261;71516;-69
2023/07/12 08:19:42;;;;;;;1.60;0.50;;;;;;;22.68;58.90;100235.88;106846;1256;61252;-75
2023/07/12 08:22:08;;;;;;;2.50;0.60;;;;;;;22.82;57.43;100246.39;107061;1256;61468;-70
2023/07/12 08:24:35;;;;;;;1.20;0.50;;;;;;;22.80;57.48;100251.70;106764;1259;74447;-70
2023/07/12 08:27:04;;;;;;;1.70;0.50;;;;;;;22.80;56.69;100250.77;106962;1256;71233;-71
2023/07/12 08:29:34;;;;;;;5.10;0.70;;;;;;;22.78;57.05;100259.96;106823;1256;72751;-70
2023/07/12 08:32:01;;;;;;;3.00;0.70;;;;;;;22.57;57.52;100256.81;107443;1256;61154;-70
2023/07/12 08:34:32;;;;;;;5.30;0.80;;;;;;;22.46;58.14;100251.27;106687;1256;62791;-69
2023/07/12 08:37:00;;;;;;;2.10;0.60;;;;;;;22.53;57.94;100265.51;106642;1256;74777;-70
2023/07/12 08:39:26;;;;;;;2.70;0.50;;;;;;;22.46;58.12;100257.70;107224;1256;70176;-69
2023/07/12 08:41:53;;;;;;;4.80;0.60;;;;;;;22.32;58.69;100264.73;106869;1255;73829;-70
2023/07/12 08:44:22;;;;;;;2.60;0.80;;;;;;;22.13;59.27;100279.30;107097;1255;61268;-69
2023/07/12 08:46:52;;;;;;;1.00;0.60;;;;;;;21.99;59.71;100272.20;107293;1257;61240;-70
2023/07/12 08:49:19;;;;;;;2.10;0.50;;;;;;;21.88;59.95;100281.69;107164;1256;74019;-70
2023/07/12 08:51:46;;;;;;;1.50;0.60;;;;;;;21.88;60.26;100269.80;107303;1256;70041;-71
2023/07/12 08:54:34;;;;;;;1.50;0.50;;;;;;;22.08;60.03;100269.00;107123;1256;70804;-71
2023/07/12 08:57:07;;;;;;;2.00;0.80;;;;;;;22.43;59.06;100275.69;107420;1256;61329;-72
2023/07/12 08:59:34;;;;;;;2.40;0.90;;;;;;;22.45;58.17;100282.58;107253;1256;61299;-71
2023/07/12 09:02:11;;;;;;;2.80;0.80;;;;;;;22.40;58.13;100289.20;107245;1259;74091;-71
2023/07/12 09:04:38;;;;;;;1.90;0.90;;;;;;;22.29;58.82;100282.60;107298;1255;71338;-71
2023/07/12 09:07:05;;;;;;;1.80;0.90;;;;;;;22.36;58.81;100285.30;107058;1256;71595;-71
2023/07/12 09:09:39;;;;;;;2.40;1.00;;;;;;;22.44;59.04;100291.05;107286;1256;61113;-71
2023/07/12 09:12:20;;;;;;;2.00;1.20;;;;;;;22.49;58.43;100297.34;107108;1262;59781;-70
2023/07/12 09:14:52;;;;;;;2.70;1.20;;;;;;;22.44;57.89;100301.92;107104;1256;74630;-72
2023/07/12 09:17:26;;;;;;;2.90;1.10;;;;;;;22.36;58.03;100301.23;107177;1256;71488;-70
2023/07/12 09:19:53;;;;;;;2.60;1.20;;;;;;;22.39;58.07;100302.87;107098;1256;71436;-73
2023/07/12 09:22:20;;;;;;;2.90;1.30;;;;;;;22.42;58.07;100298.29;107373;1256;61591;-73
2023/07/12 09:24:53;;;;;;;3.50;1.40;;;;;;;22.47;58.26;100301.60;107518;1256;61350;-72
2023/07/12 09:27:25;;;;;;;4.70;1.40;;;;;;;22.53;57.90;100301.95;107160;1256;73517;-70
2023/07/12 09:30:04;;;;;;;2.40;1.40;;;;;;;22.67;57.74;100303.68;106803;1256;70032;-71
2023/07/12 09:32:34;;;;;;;2.90;1.20;;;;;;;22.71;57.34;100315.21;107106;1256;71395;-71
2023/07/12 09:35:21;;;;;;;1.80;1.30;;;;;;;22.69;57.28;100315.91;106687;1257;61295;-73
2023/07/12 09:37:56;;;;;;;3.00;1.60;;;;;;;22.64;57.45;100309.35;106664;1256;59360;-70
2023/07/12 09:40:23;;;;;;;2.50;1.30;;;;;;;22.70;57.70;100308.99;106688;1256;73213;-71
2023/07/12 09:42:56;;;;;;;2.40;1.20;;;;;;;22.67;57.38;100307.20;106654;1256;69983;-71
2023/07/12 09:45:30;;;;;;;2.90;1.20;;;;;;;22.66;57.40;100309.78;106633;1256;71206;-70
2023/07/12 09:48:09;;;;;;;2.10;1.10;;;;;;;22.74;56.74;100315.45;106860;1256;61841;-71
2023/07/12 09:50:45;;;;;;;2.10;0.90;;;;;;;22.77;56.15;100309.93;106703;1262;61251;-70
2023/07/12 09:53:36;;;;;;;1.40;0.80;;;;;;;22.73;56.51;100311.27;106778;1256;73475;-70
2023/07/12 09:56:11;;;;;;;2.20;1.00;;;;;;;22.69;56.54;100313.05;106527;1256;69668;-70
2023/07/12 09:59:01;;;;;;;2.30;1.20;;;;;;;22.76;56.86;100307.00;106821;1256;72688;-71
2023/07/12 10:01:31;;;;;;;2.10;0.90;;;;;;;22.97;56.61;100304.05;107387;1256;61261;-72
2023/07/12 10:04:13;;;;;;;2.00;1.10;;;;;;;23.12;56.23;100312.70;106939;1261;61590;-71
2023/07/12 10:06:46;;;;;;;2.80;1.10;;;;;;;23.12;55.52;100314.82;107146;1256;73182;-74
2023/07/12 10:09:43;;;;;;;2.60;1.00;;;;;;;23.13;56.04;100311.85;106754;1260;69719;-72
2023/07/12 10:12:24;;;;;;;2.20;0.90;;;;;;;23.16;56.13;100311.69;107155;1259;71539;-71
2023/07/12 10:14:54;;;;;;;3.00;0.90;;;;;;;23.17;55.94;100325.48;107898;1256;61123;-70
2023/07/12 10:17:29;;;;;;;1.70;0.90;;;;;;;23.16;56.11;100326.08;108869;1256;60399;-70
2023/07/12 10:19:56;;;;;;;2.80;1.10;;;;;;;23.20;56.59;100325.05;106785;1257;72403;-72
2023/07/12 10:22:33;;;;;;;2.00;0.90;;;;;;;23.33;56.56;100323.95;106557;1263;70943;-71
2023/07/12 10:25:05;;;;;;;1.90;0.80;;;;;;;23.53;55.74;100319.89;106144;1259;73127;-73
2023/07/12 10:27:37;;;;;;;2.10;0.80;;;;;;;23.65;54.93;100324.88;106256;1256;61293;-71
2023/07/12 10:30:14;;;;;;;1.90;0.80;;;;;;;23.56;53.81;100330.89;106248;1256;61270;-72
2023/07/12 10:32:47;;;;;;;2.00;0.70;;;;;;;23.58;53.46;100331.22;106087;1257;74572;-69
2023/07/12 10:35:34;;;;;;;2.80;0.90;;;;;;;23.68;53.38;100327.85;106178;1260;71181;-69
2023/07/12 10:38:05;;;;;;;1.80;0.80;;;;;;;23.67;53.51;100321.46;105973;1256;72889;-70
2023/07/12 10:41:13;;;;;;;2.10;0.80;;;;;;;23.58;53.31;100325.36;106770;1256;61339;-70
2023/07/12 10:43:46;;;;;;;3.90;0.90;;;;;;;23.65;54.27;100321.42;106137;1259;61631;-71
2023/07/12 10:46:38;;;;;;;4.40;0.90;;;;;;;23.77;54.00;100331.83;106443;1259;74386;-71
2023/07/12 10:49:13;;;;;;;2.10;0.80;;;;;;;23.69;53.42;100328.02;106057;1256;70383;-72
2023/07/12 10:51:44;;;;;;;1.40;0.70;;;;;;;23.58;52.99;100340.15;105946;1256;71441;-70
2023/07/12 10:54:29;;;;;;;1.90;0.90;;;;;;;23.42;53.45;100345.45;106298;1256;61172;-70
2023/07/12 10:57:06;;;;;;;2.50;1.00;;;;;;;23.33;54.22;100340.84;106620;1257;61148;-71
2023/07/12 10:59:32;;;;;;;1.90;0.80;;;;;;;23.30;54.27;100337.96;106440;1257;73510;-71
2023/07/12 11:02:05;;;;;;;2.50;1.00;;;;;;;23.42;53.96;100345.92;106601;1261;71521;-71
2023/07/12 11:04:50;;;;;;;1.60;0.80;;;;;;;23.60;52.37;100344.70;106614;1256;72596;-71
2023/07/12 11:07:17;;;;;;;2.90;1.00;;;;;;;23.78;51.44;100344.13;107029;1256;59188;-72
2023/07/12 11:09:49;;;;;;;2.60;0.80;;;;;;;23.93;50.87;100344.45;106549;1256;61358;-71
2023/07/12 11:12:26;;;;;;;1.60;0.80;;;;;;;24.12;50.11;100348.27;106327;1259;74564;-72
2023/07/12 11:15:15;;;;;;;1.70;0.80;;;;;;;24.05;50.09;100367.14;106609;1256;69775;-70
2023/07/12 11:17:51;;;;;;;2.40;0.80;;;;;;;23.90;50.28;100354.70;106293;1259;72740;-71
2023/07/12 11:20:30;;;;;;;2.10;0.70;;;;;;;23.83;50.77;100359.02;106510;1256;61280;-72
2023/07/12 11:23:07;;;;;;;2.00;0.80;;;;;;;23.89;50.92;100358.27;106549;1256;61346;-72
2023/07/12 11:25:43;;;;;;;1.40;0.70;;;;;;;24.01;50.51;100367.26;106396;1259;73457;-71
2023/07/12 11:28:22;;;;;;;1.70;0.80;;;;;;;24.12;49.52;100365.63;106199;1256;70306;-72
2023/07/12 11:31:11;;;;;;;2.40;0.80;;;;;;;24.25;48.62;100356.76;106510;1256;70512;-69